Time;durP1;ratioP1;P1;durP2;ratioP2;P2;SDS_P1;SDS_P2;PMS_P1;PMS_P2;Temp;Humidity;BMP_temperature;BMP_pressure;BME280_temperature;BME280_humidity;BME280_pressure;Samples;Min_cycle;Max_cycle;Signal;HPM_P1;HPM_P2
2023/04/16 00:01:01;;;;;;;23.20;19.50;;;;;;;9.22;96.85;100956.11;109334;1253;58788;-71
2023/04/16 00:03:27;;;;;;;24.90;20.10;;;;;;;9.23;96.83;100957.73;109348;1254;73855;-68
2023/04/16 00:05:55;;;;;;;24.60;20.00;;;;;;;9.22;97.06;100959.31;109372;1254;70311;-71
2023/04/16 00:08:23;;;;;;;26.80;19.80;;;;;;;9.21;97.13;100960.81;109357;1253;71226;-71
2023/04/16 00:10:51;;;;;;;27.20;20.60;;;;;;;9.19;97.35;100955.91;109311;1253;61007;-71
2023/04/16 00:13:18;;;;;;;24.00;20.20;;;;;;;9.18;97.19;100954.20;109100;1253;59302;-71
2023/04/16 00:15:45;;;;;;;24.50;20.20;;;;;;;9.18;97.25;100953.16;109167;1254;72582;-71
2023/04/16 00:18:11;;;;;;;28.20;21.00;;;;;;;9.16;97.71;100957.29;109152;1254;69659;-71
2023/04/16 00:20:38;;;;;;;23.40;19.80;;;;;;;9.15;97.43;100962.44;109119;1254;58249;-70
2023/04/16 00:23:04;;;;;;;23.10;19.00;;;;;;;9.15;97.38;100962.50;109108;1253;59114;-68
2023/04/16 00:25:31;;;;;;;25.00;19.60;;;;;;;9.15;97.59;100961.05;109344;1254;58788;-71
2023/04/16 00:27:58;;;;;;;27.20;20.70;;;;;;;9.14;97.46;100963.80;109318;1254;73655;-71
2023/04/16 00:30:24;;;;;;;27.70;20.80;;;;;;;9.14;97.62;100961.90;109105;1254;58536;-68
2023/04/16 00:32:51;;;;;;;26.80;19.70;;;;;;;9.14;97.50;100965.77;109322;1254;71262;-68
2023/04/16 00:35:18;;;;;;;25.70;20.60;;;;;;;9.14;97.73;100968.77;109108;1254;60058;-68
2023/04/16 00:37:44;;;;;;;26.20;21.20;;;;;;;9.14;97.66;100965.05;109388;1253;60326;-68
2023/04/16 00:40:11;;;;;;;27.00;21.20;;;;;;;9.10;97.86;100966.69;109384;1253;73858;-71
2023/04/16 00:42:37;;;;;;;28.80;21.90;;;;;;;9.10;97.79;100972.38;109368;1254;71611;-71
2023/04/16 00:45:04;;;;;;;27.00;21.90;;;;;;;9.10;98.02;100971.15;109090;1254;71428;-71
2023/04/16 00:47:31;;;;;;;28.40;21.80;;;;;;;9.12;97.70;100968.98;109288;1254;61589;-71
2023/04/16 00:49:58;;;;;;;27.80;21.20;;;;;;;9.14;97.56;100970.52;109109;1253;59030;-71
2023/04/16 00:52:26;;;;;;;26.70;20.70;;;;;;;9.16;97.53;100969.45;109001;1253;73683;-71
2023/04/16 00:54:53;;;;;;;29.20;22.40;;;;;;;9.16;97.40;100969.98;109366;1254;71635;-71
2023/04/16 00:57:22;;;;;;;27.60;22.20;;;;;;;9.16;97.43;100969.29;109396;1254;71672;-68
2023/04/16 00:59:49;;;;;;;27.20;21.10;;;;;;;9.16;97.20;100969.73;109166;1254;59570;-68
2023/04/16 01:02:16;;;;;;;30.80;22.30;;;;;;;9.17;96.99;100967.17;109313;1254;58923;-68
2023/04/16 01:04:43;;;;;;;28.10;21.30;;;;;;;9.17;96.92;100966.98;109176;1254;73416;-71
2023/04/16 01:07:10;;;;;;;27.50;21.90;;;;;;;9.14;96.89;100964.66;109336;1254;69457;-68
2023/04/16 01:09:36;;;;;;;31.70;22.80;;;;;;;9.13;96.88;100967.30;109135;1254;71356;-71
2023/04/16 01:12:03;;;;;;;31.60;23.50;;;;;;;9.12;97.06;100971.82;109063;1254;60008;-71
2023/04/16 01:14:35;;;;;;;32.60;23.40;;;;;;;9.11;97.04;100970.86;109096;1254;60112;-71
2023/04/16 01:17:05;;;;;;;27.90;22.20;;;;;;;9.07;97.15;100976.33;109153;1254;72863;-68
2023/04/16 01:19:35;;;;;;;30.40;23.00;;;;;;;9.03;97.12;100981.70;109144;1254;70400;-69
2023/04/16 01:22:02;;;;;;;32.60;24.30;;;;;;;9.00;97.18;100982.21;109348;1254;73284;-69
2023/04/16 01:24:29;;;;;;;32.70;23.30;;;;;;;8.96;97.22;100982.90;109316;1253;60927;-68
2023/04/16 01:26:59;;;;;;;30.10;23.10;;;;;;;8.94;97.27;100991.71;109127;1254;58793;-68
2023/04/16 01:29:26;;;;;;;32.70;24.10;;;;;;;8.90;97.20;100997.60;109188;1254;73700;-68
2023/04/16 01:31:53;;;;;;;34.20;23.50;;;;;;;8.86;97.45;101001.46;109176;1254;69932;-68
2023/04/16 01:34:20;;;;;;;31.90;23.10;;;;;;;8.83;97.18;101001.40;109205;1254;71616;-68
2023/04/16 01:36:46;;;;;;;29.90;22.80;;;;;;;8.79;97.36;101006.31;109306;1253;60215;-68
2023/04/16 01:39:15;;;;;;;33.70;23.70;;;;;;;8.80;97.29;101009.45;109169;1254;59141;-68
2023/04/16 01:41:42;;;;;;;27.80;22.00;;;;;;;8.74;97.28;101006.29;109340;1254;73187;-68
2023/04/16 01:44:08;;;;;;;31.50;22.50;;;;;;;8.70;97.37;101008.52;109374;1254;69687;-69
2023/04/16 01:46:36;;;;;;;28.30;21.90;;;;;;;8.67;97.45;101008.69;109319;1253;58549;-69
2023/04/16 01:49:04;;;;;;;28.30;22.20;;;;;;;8.65;97.19;101014.41;109098;1254;59644;-69
2023/04/16 01:51:31;;;;;;;32.10;24.10;;;;;;;8.63;97.12;101020.10;109022;1259;58823;-69
2023/04/16 01:53:57;;;;;;;34.80;23.90;;;;;;;8.61;97.71;101019.82;109025;1254;72717;-68
2023/04/16 01:56:25;;;;;;;31.20;23.40;;;;;;;8.58;97.99;101018.33;109323;1254;70606;-69
2023/04/16 01:58:52;;;;;;;31.30;23.50;;;;;;;8.54;98.07;101021.35;109076;1254;71245;-69
2023/04/16 02:01:19;;;;;;;31.10;23.10;;;;;;;8.48;98.61;101021.95;109050;1254;60239;-68
2023/04/16 02:03:46;;;;;;;29.60;22.80;;;;;;;8.46;98.56;101022.52;109147;1254;58239;-68
2023/04/16 02:06:13;;;;;;;34.80;25.20;;;;;;;8.46;98.56;101018.35;109227;1256;73408;-69
2023/04/16 02:08:40;;;;;;;29.80;22.10;;;;;;;8.45;98.62;101023.18;109468;1254;69153;-68
2023/04/16 02:11:07;;;;;;;33.70;24.20;;;;;;;8.40;98.71;101025.20;109370;1253;71579;-68
2023/04/16 02:13:33;;;;;;;32.10;23.10;;;;;;;8.40;98.75;101022.45;109438;1254;58181;-68
2023/04/16 02:16:01;;;;;;;35.70;23.90;;;;;;;8.37;98.94;101025.36;109370;1254;59422;-69
2023/04/16 02:18:27;;;;;;;33.00;23.70;;;;;;;8.38;98.79;101028.05;109231;1253;73570;-68
2023/04/16 02:20:57;;;;;;;34.40;23.50;;;;;;;8.39;98.75;101029.58;109398;1254;58697;-69
2023/04/16 02:23:23;;;;;;;36.00;24.60;;;;;;;8.35;98.96;101035.00;109233;1254;71567;-68
2023/04/16 02:25:50;;;;;;;34.40;24.80;;;;;;;8.33;99.07;101034.86;109118;1254;58983;-69
2023/04/16 02:28:17;;;;;;;30.70;24.60;;;;;;;8.32;99.12;101037.77;109316;1254;60065;-68
2023/04/16 02:30:44;;;;;;;32.00;23.30;;;;;;;8.34;98.94;101036.23;109408;1254;73550;-68
2023/04/16 02:33:11;;;;;;;32.20;24.10;;;;;;;8.33;98.84;101041.77;109368;1254;71510;-69
2023/04/16 02:35:39;;;;;;;34.50;25.20;;;;;;;8.32;98.54;101038.57;108831;1254;249735;-68
2023/04/16 02:38:06;;;;;;;33.80;25.20;;;;;;;8.31;98.73;101036.85;109182;1254;59918;-69
2023/04/16 02:40:32;;;;;;;35.70;24.60;;;;;;;8.26;98.73;101033.46;109467;1254;59318;-70
2023/04/16 02:42:59;;;;;;;33.20;23.90;;;;;;;8.23;98.79;101036.10;109443;1254;58143;-70
2023/04/16 02:45:26;;;;;;;33.50;24.10;;;;;;;8.19;98.90;101040.72;109420;1254;70352;-70
2023/04/16 02:47:53;;;;;;;32.50;23.80;;;;;;;8.15;98.93;101042.31;109259;1254;71205;-69
2023/04/16 02:50:19;;;;;;;32.20;23.60;;;;;;;8.10;98.96;101044.88;109423;1254;59141;-70
2023/04/16 02:52:46;;;;;;;32.50;23.00;;;;;;;8.07;99.24;101046.09;109311;1255;58794;-70
2023/04/16 02:55:12;;;;;;;31.10;22.90;;;;;;;8.04;99.18;101051.81;109483;1254;72154;-70
2023/04/16 02:57:41;;;;;;;31.70;22.50;;;;;;;8.00;99.46;101049.96;109384;1254;58761;-70
2023/04/16 03:00:08;;;;;;;31.30;23.00;;;;;;;7.97;99.52;101053.22;109380;1256;71322;-70
2023/04/16 03:02:34;;;;;;;34.70;23.30;;;;;;;7.96;99.65;101053.09;109429;1254;59629;-70
2023/04/16 03:05:01;;;;;;;31.50;23.40;;;;;;;7.97;99.50;101054.09;109404;1254;59097;-70
2023/04/16 03:07:28;;;;;;;32.50;24.10;;;;;;;7.95;99.78;101054.98;109408;1254;72304;-70
2023/04/16 03:09:55;;;;;;;31.30;21.90;;;;;;;7.92;99.82;101059.17;109208;1254;58289;-70
2023/04/16 03:12:21;;;;;;;32.50;22.20;;;;;;;7.89;99.94;101054.91;109383;1257;72386;-70
2023/04/16 03:14:50;;;;;;;31.50;23.10;;;;;;;7.88;99.97;101056.20;109352;1254;60290;-70
2023/04/16 03:17:17;;;;;;;34.10;23.00;;;;;;;7.87;100.00;101057.34;109157;1254;58818;-70
2023/04/16 03:19:44;;;;;;;37.50;25.50;;;;;;;7.85;100.00;101061.11;109386;1254;73865;-70
2023/04/16 03:22:10;;;;;;;40.20;26.40;;;;;;;7.83;100.00;101063.42;109217;1254;69713;-70
2023/04/16 03:24:37;;;;;;;37.80;25.80;;;;;;;7.81;100.00;101066.02;109203;1259;58701;-70
2023/04/16 03:27:03;;;;;;;38.20;25.00;;;;;;;7.75;100.00;101070.48;109463;1252;58651;-70
2023/04/16 03:29:30;;;;;;;37.10;24.80;;;;;;;7.74;100.00;101070.70;109200;1254;58579;-70
2023/04/16 03:31:57;;;;;;;37.20;25.90;;;;;;;7.73;100.00;101075.05;109099;1254;73617;-70
2023/04/16 03:34:26;;;;;;;37.20;23.40;;;;;;;7.73;100.00;101075.27;109284;1254;70266;-70
2023/04/16 03:36:53;;;;;;;36.20;23.60;;;;;;;7.68;100.00;101069.04;109064;1253;72499;-70
2023/04/16 03:39:19;;;;;;;37.00;24.40;;;;;;;7.63;100.00;101069.90;109438;1256;57553;-70
2023/04/16 03:41:46;;;;;;;37.60;24.80;;;;;;;7.61;100.00;101069.85;109440;1254;57604;-70
2023/04/16 03:44:12;;;;;;;38.50;25.10;;;;;;;7.60;100.00;101063.13;109431;1254;58589;-70
2023/04/16 03:46:39;;;;;;;34.70;24.60;;;;;;;7.59;100.00;101065.52;109438;1254;69798;-70
2023/04/16 03:49:05;;;;;;;37.40;25.40;;;;;;;7.58;100.00;101072.82;109390;1253;72809;-70
2023/04/16 03:51:33;;;;;;;38.10;25.40;;;;;;;7.57;100.00;101076.40;109331;1253;60759;-70
2023/04/16 03:53:59;;;;;;;38.70;26.10;;;;;;;7.55;100.00;101078.85;109228;1254;59873;-70
2023/04/16 03:56:26;;;;;;;39.30;25.90;;;;;;;7.55;100.00;101082.36;109449;1254;58328;-70
2023/04/16 03:58:52;;;;;;;37.60;24.60;;;;;;;7.53;100.00;101078.20;109463;1254;58132;-70
2023/04/16 04:01:19;;;;;;;40.70;25.90;;;;;;;7.51;100.00;101074.15;109400;1254;58120;-70
2023/04/16 04:03:45;;;;;;;39.20;26.10;;;;;;;7.52;100.00;101075.64;109238;1254;58322;-70
2023/04/16 04:06:12;;;;;;;36.80;24.60;;;;;;;7.54;100.00;101075.14;109247;1254;58215;-70
2023/04/16 04:08:39;;;;;;;38.50;25.10;;;;;;;7.55;100.00;101075.71;109326;1254;72942;-70
2023/04/16 04:11:06;;;;;;;36.10;24.50;;;;;;;7.56;100.00;101075.46;109168;1254;69614;-70
2023/04/16 04:13:32;;;;;;;40.30;25.30;;;;;;;7.56;100.00;101080.72;109206;1252;70132;-70
2023/04/16 04:15:59;;;;;;;41.70;26.00;;;;;;;7.59;100.00;101082.73;109363;1254;58234;-70
2023/04/16 04:18:26;;;;;;;39.40;25.70;;;;;;;7.60;100.00;101084.55;109421;1253;59107;-70
2023/04/16 04:20:52;;;;;;;34.90;23.70;;;;;;;7.60;100.00;101084.94;109295;1253;72585;-70
2023/04/16 04:23:19;;;;;;;37.90;24.60;;;;;;;7.58;100.00;101091.45;109457;1254;69813;-69
2023/04/16 04:25:45;;;;;;;38.10;24.40;;;;;;;7.57;100.00;101091.16;109303;1256;58310;-70
2023/04/16 04:28:12;;;;;;;35.80;24.50;;;;;;;7.56;100.00;101093.80;109163;1253;60095;-70
2023/04/16 04:30:38;;;;;;;34.90;23.20;;;;;;;7.54;100.00;101094.45;109455;1253;58257;-70
2023/04/16 04:33:05;;;;;;;38.00;24.80;;;;;;;7.56;100.00;101092.36;109447;1254;58425;-70
2023/04/16 04:35:32;;;;;;;36.30;24.00;;;;;;;7.59;100.00;101096.13;109398;1254;70706;-69
2023/04/16 04:38:00;;;;;;;35.50;24.00;;;;;;;7.60;100.00;101095.15;109461;1253;72368;-70
2023/04/16 04:40:28;;;;;;;32.90;23.10;;;;;;;7.60;100.00;101094.09;109367;1254;60481;-70
2023/04/16 04:42:54;;;;;;;36.90;24.30;;;;;;;7.61;100.00;101091.04;109390;1254;59234;-70
2023/04/16 04:45:24;;;;;;;35.80;23.50;;;;;;;7.63;100.00;101091.66;109384;1254;73882;-70
2023/04/16 04:47:53;;;;;;;33.70;24.10;;;;;;;7.67;100.00;101096.37;109220;1253;70989;-70
2023/04/16 04:50:21;;;;;;;33.80;23.40;;;;;;;7.70;100.00;101097.36;109332;1254;72229;-70
2023/04/16 04:52:47;;;;;;;36.10;23.90;;;;;;;7.69;100.00;101104.81;109242;1253;60996;-70
2023/04/16 04:55:14;;;;;;;34.60;22.70;;;;;;;7.68;100.00;101104.70;109324;1254;60979;-70
2023/04/16 04:57:41;;;;;;;34.90;23.10;;;;;;;7.67;100.00;101109.44;109384;1254;72670;-70
2023/04/16 05:00:08;;;;;;;33.60;22.90;;;;;;;7.68;100.00;101109.52;109340;1253;70905;-70
2023/04/16 05:02:35;;;;;;;37.30;22.40;;;;;;;7.68;100.00;101108.77;109078;1260;72499;-69
2023/04/16 05:05:02;;;;;;;36.30;23.60;;;;;;;7.72;100.00;101112.47;109347;1253;59847;-69
2023/04/16 05:07:29;;;;;;;31.90;21.30;;;;;;;7.75;100.00;101117.30;109416;1253;58145;-69
2023/04/16 05:09:56;;;;;;;33.90;22.70;;;;;;;7.74;100.00;101121.05;109455;1253;72918;-69
2023/04/16 05:12:22;;;;;;;33.50;22.40;;;;;;;7.74;100.00;101129.92;109421;1252;57879;-69
2023/04/16 05:14:49;;;;;;;34.00;23.20;;;;;;;7.74;100.00;101133.35;109418;1254;71704;-69
2023/04/16 05:17:15;;;;;;;32.50;21.80;;;;;;;7.76;100.00;101132.83;109436;1254;60915;-69
2023/04/16 05:19:42;;;;;;;33.70;22.50;;;;;;;7.77;100.00;101137.88;109219;1254;58147;-69
2023/04/16 05:22:09;;;;;;;34.10;22.30;;;;;;;7.78;100.00;101131.63;109173;1254;58517;-69
2023/04/16 05:24:35;;;;;;;34.40;22.60;;;;;;;7.79;100.00;101133.64;109208;1254;69761;-69
2023/04/16 05:27:01;;;;;;;33.10;22.70;;;;;;;7.81;100.00;101136.14;109378;1254;58561;-69
2023/04/16 05:29:28;;;;;;;34.60;22.70;;;;;;;7.83;100.00;101143.11;109262;1254;61017;-69
2023/04/16 05:31:55;;;;;;;35.80;22.80;;;;;;;7.86;100.00;101144.10;109265;1254;58190;-69
2023/04/16 05:34:22;;;;;;;33.20;22.00;;;;;;;7.89;100.00;101144.17;109272;1254;72420;-70
2023/04/16 05:36:48;;;;;;;30.70;21.40;;;;;;;7.88;100.00;101149.15;109380;1253;58187;-69
2023/04/16 05:39:16;;;;;;;30.70;21.40;;;;;;;7.88;100.00;101150.38;109449;1254;72400;-69
2023/04/16 05:41:42;;;;;;;35.00;23.10;;;;;;;7.91;100.00;101146.77;109158;1254;60080;-69
2023/04/16 05:44:09;;;;;;;32.20;21.00;;;;;;;7.92;100.00;101148.94;109247;1254;59455;-69
2023/04/16 05:46:35;;;;;;;32.30;21.40;;;;;;;7.96;100.00;101153.51;109420;1254;72476;-69
2023/04/16 05:49:02;;;;;;;31.40;21.70;;;;;;;7.99;99.99;101161.34;109460;1253;71697;-69
2023/04/16 05:51:29;;;;;;;29.10;20.30;;;;;;;8.01;99.93;101164.20;109437;1254;72733;-69
2023/04/16 05:53:55;;;;;;;29.20;20.10;;;;;;;8.01;99.69;101165.09;109443;1253;58240;-69
2023/04/16 05:56:22;;;;;;;29.20;20.50;;;;;;;8.00;99.59;101167.90;109393;1254;59321;-69
2023/04/16 05:58:48;;;;;;;30.10;20.20;;;;;;;8.04;99.80;101166.50;109410;1254;73021;-69
2023/04/16 06:01:15;;;;;;;27.50;20.00;;;;;;;8.09;99.76;101167.01;109299;1253;58449;-69
2023/04/16 06:03:42;;;;;;;30.30;20.00;;;;;;;8.12;99.43;101166.05;109364;1253;71559;-70
2023/04/16 06:06:08;;;;;;;31.30;19.80;;;;;;;8.16;99.14;101170.91;109374;1254;59990;-70
2023/04/16 06:08:35;;;;;;;29.80;19.60;;;;;;;8.20;98.86;101172.08;109473;1253;58812;-70
2023/04/16 06:11:02;;;;;;;27.30;18.80;;;;;;;8.20;98.35;101176.08;109471;1253;72644;-70
2023/04/16 06:13:29;;;;;;;26.60;19.70;;;;;;;8.22;98.24;101184.92;109480;1253;70856;-70
2023/04/16 06:15:56;;;;;;;28.60;19.60;;;;;;;8.24;98.21;101185.35;109413;1253;70138;-70
2023/04/16 06:18:23;;;;;;;27.80;18.40;;;;;;;8.23;98.02;101186.86;109432;1253;60127;-70
2023/04/16 06:20:49;;;;;;;27.00;18.80;;;;;;;8.27;97.92;101188.12;109366;1254;58850;-70
2023/04/16 06:23:16;;;;;;;26.40;18.00;;;;;;;8.34;98.04;101190.78;109298;1254;58597;-70
2023/04/16 06:25:42;;;;;;;26.10;18.40;;;;;;;8.39;97.81;101189.58;109460;1253;58459;-71
2023/04/16 06:28:08;;;;;;;26.50;18.30;;;;;;;8.40;96.92;101192.64;109433;1254;58305;-70
2023/04/16 06:30:35;;;;;;;26.50;17.70;;;;;;;8.39;96.56;101195.77;109237;1254;58269;-70
2023/04/16 06:33:02;;;;;;;25.50;18.40;;;;;;;8.38;96.54;101200.41;109236;1254;59211;-70
2023/04/16 06:35:29;;;;;;;23.80;17.60;;;;;;;8.37;96.25;101204.06;109415;1253;72312;-70
2023/04/16 06:37:55;;;;;;;26.50;19.10;;;;;;;8.37;96.22;101206.66;109403;1254;69739;-71
2023/04/16 06:40:22;;;;;;;23.70;18.00;;;;;;;8.40;96.38;101204.46;109232;1254;71437;-71
2023/04/16 06:42:49;;;;;;;22.60;16.90;;;;;;;8.45;96.35;101205.77;109372;1254;60930;-70
2023/04/16 06:45:16;;;;;;;23.20;16.40;;;;;;;8.48;95.82;101206.73;109375;1253;58129;-70
2023/04/16 06:47:43;;;;;;;23.10;17.00;;;;;;;8.49;95.28;101209.27;109387;1254;72465;-70
2023/04/16 06:50:10;;;;;;;23.30;17.40;;;;;;;8.51;95.19;101212.21;109310;1253;71871;-70
2023/04/16 06:52:37;;;;;;;21.80;16.50;;;;;;;8.57;94.95;101211.98;109186;1254;71803;-70
2023/04/16 06:55:04;;;;;;;23.00;16.20;;;;;;;8.63;94.84;101214.98;109287;1254;59633;-70
2023/04/16 06:57:30;;;;;;;21.60;15.90;;;;;;;8.67;94.37;101219.48;109260;1254;59057;-70
2023/04/16 06:59:57;;;;;;;21.50;16.10;;;;;;;8.73;94.26;101222.76;109244;1254;74385;-70
2023/04/16 07:02:24;;;;;;;23.10;16.30;;;;;;;8.75;93.47;101227.84;109005;1254;70459;-70
2023/04/16 07:04:51;;;;;;;23.20;15.30;;;;;;;8.80;93.36;101227.59;109223;1253;72538;-70
2023/04/16 07:07:18;;;;;;;22.80;15.10;;;;;;;8.83;92.74;101229.01;109137;1254;59627;-70
2023/04/16 07:09:45;;;;;;;21.00;15.20;;;;;;;8.86;92.08;101229.80;109130;1253;58796;-70
2023/04/16 07:12:12;;;;;;;19.00;14.20;;;;;;;8.88;91.81;101232.60;109202;1253;73477;-70
2023/04/16 07:14:38;;;;;;;21.20;15.10;;;;;;;8.89;91.64;101230.40;109432;1253;70967;-71
2023/04/16 07:17:05;;;;;;;21.10;14.80;;;;;;;8.97;91.57;101231.42;109416;1252;72612;-70
2023/04/16 07:19:32;;;;;;;21.20;14.30;;;;;;;8.99;90.95;101227.86;109422;1253;61346;-70
2023/04/16 07:21:59;;;;;;;21.20;14.70;;;;;;;9.00;90.67;101230.23;109454;1253;58947;-71
2023/04/16 07:24:25;;;;;;;19.70;14.30;;;;;;;9.09;91.16;101229.91;109292;1253;72825;-69
2023/04/16 07:26:52;;;;;;;20.80;14.40;;;;;;;9.13;90.37;101227.66;109310;1253;58457;-70
2023/04/16 07:29:19;;;;;;;16.80;12.50;;;;;;;9.16;89.73;101229.89;109231;1253;73921;-70
2023/04/16 07:31:46;;;;;;;20.40;14.50;;;;;;;9.10;89.02;101235.58;109352;1253;58659;-70
2023/04/16 07:34:12;;;;;;;19.50;14.20;;;;;;;9.09;88.82;101236.89;109272;1252;60061;-70
2023/04/16 07:36:39;;;;;;;19.50;13.60;;;;;;;9.16;89.27;101240.60;109409;1253;72724;-70
2023/04/16 07:39:06;;;;;;;18.30;14.00;;;;;;;9.27;89.07;101244.13;109297;1253;70434;-70
2023/04/16 07:41:33;;;;;;;19.90;14.30;;;;;;;9.33;88.27;101241.71;109220;1256;70178;-71
2023/04/16 07:44:00;;;;;;;17.80;13.40;;;;;;;9.36;87.37;101243.96;109367;1252;60870;-71
2023/04/16 07:46:27;;;;;;;20.60;13.80;;;;;;;9.46;87.76;101248.08;109228;1253;60030;-71
2023/04/16 07:49:05;;;;;;;18.10;13.10;;;;;;;9.55;87.12;101249.47;109431;1253;74981;-70
2023/04/16 07:51:32;;;;;;;18.70;13.80;;;;;;;9.65;86.85;101251.48;109366;1253;71011;-71
2023/04/16 07:53:58;;;;;;;20.90;14.00;;;;;;;9.71;86.41;101254.72;109371;1253;71229;-71
2023/04/16 07:56:25;;;;;;;15.70;12.10;;;;;;;9.73;85.98;101256.95;109477;1253;60738;-72
2023/04/16 07:58:52;;;;;;;17.40;12.90;;;;;;;9.67;85.32;101262.02;109276;1253;59228;-72
2023/04/16 08:01:19;;;;;;;19.30;13.60;;;;;;;9.67;85.77;101264.83;109061;1253;73624;-71
2023/04/16 08:03:45;;;;;;;18.80;13.40;;;;;;;9.76;86.25;101267.27;109282;1254;70880;-72
2023/04/16 08:06:12;;;;;;;17.70;12.90;;;;;;;9.80;85.51;101269.50;109068;1254;72842;-72
2023/04/16 08:08:39;;;;;;;17.70;12.50;;;;;;;9.83;85.28;101271.05;109358;1253;58255;-71
2023/04/16 08:11:06;;;;;;;18.70;12.70;;;;;;;9.86;85.42;101278.27;109432;1253;60008;-72
2023/04/16 08:17:20;;;;;;;16.70;12.30;;;;;;;9.97;84.56;101281.08;109410;1253;69782;-72
2023/04/16 08:19:47;;;;;;;19.70;13.30;;;;;;;9.98;84.19;101281.66;109250;1253;72698;-72
2023/04/16 08:22:14;;;;;;;20.80;13.50;;;;;;;10.09;84.88;101281.40;109197;1253;62250;-74
2023/04/16 08:24:40;;;;;;;18.50;12.80;;;;;;;10.19;84.23;101282.37;109464;1252;60044;-71
2023/04/16 08:27:07;;;;;;;17.40;12.40;;;;;;;10.21;83.52;101284.56;109232;1254;73888;-72
2023/04/16 08:29:45;;;;;;;16.60;12.80;;;;;;;10.20;83.33;101290.53;109251;1254;71196;-72
2023/04/16 08:32:12;;;;;;;17.00;13.20;;;;;;;10.21;83.64;101296.10;109448;1253;72496;-72
2023/04/16 08:34:39;;;;;;;18.10;12.70;;;;;;;10.20;83.63;101300.06;109368;1253;60739;-69
2023/04/16 08:37:06;;;;;;;18.70;12.70;;;;;;;10.18;83.24;101302.27;109131;1253;60060;-71
2023/04/16 08:39:33;;;;;;;19.60;12.80;;;;;;;10.11;83.11;101299.39;109395;1253;74042;-70
2023/04/16 08:42:03;;;;;;;18.50;12.90;;;;;;;10.12;83.30;101306.21;109359;1253;70044;-72
2023/04/16 08:44:32;;;;;;;16.30;12.50;;;;;;;10.08;82.96;101304.37;109179;1253;72458;-70
2023/04/16 08:47:00;;;;;;;18.10;12.90;;;;;;;10.06;83.09;101308.90;109367;1253;60822;-72
2023/04/16 08:49:28;;;;;;;18.50;12.70;;;;;;;10.11;83.75;101308.36;109295;1254;60038;-70
2023/04/16 08:51:55;;;;;;;16.70;12.60;;;;;;;10.15;83.42;101313.86;109481;1253;72577;-70
2023/04/16 08:54:57;;;;;;;18.50;13.20;;;;;;;10.11;83.02;101315.89;109191;1254;71172;-70
2023/04/16 08:57:32;;;;;;;17.00;12.30;;;;;;;10.04;83.41;101316.94;108795;1261;72996;-70
2023/04/16 09:00:00;;;;;;;18.90;12.90;;;;;;;9.99;83.69;101318.17;109091;1254;60162;-70
2023/04/16 09:02:27;;;;;;;14.90;11.50;;;;;;;9.93;83.43;101321.17;109322;1252;60157;-70
2023/04/16 09:04:55;;;;;;;15.70;12.30;;;;;;;9.84;83.46;101323.40;109451;1253;73840;-70
2023/04/16 09:07:24;;;;;;;17.10;13.00;;;;;;;9.85;84.01;101322.80;109462;1252;69829;-70
2023/04/16 09:09:52;;;;;;;17.70;12.20;;;;;;;9.88;84.25;101324.02;109425;1252;72382;-70
2023/04/16 09:12:22;;;;;;;16.40;12.30;;;;;;;9.90;84.20;101323.17;109298;1256;60790;-70
2023/04/16 09:14:49;;;;;;;18.40;12.40;;;;;;;9.87;84.52;101325.54;109400;1253;59165;-70
2023/04/16 09:17:17;;;;;;;16.50;12.50;;;;;;;9.85;84.32;101325.59;109489;1253;72949;-70
2023/04/16 09:19:44;;;;;;;19.20;13.10;;;;;;;9.84;84.56;101324.42;109317;1254;70079;-70
2023/04/16 09:22:11;;;;;;;20.20;13.50;;;;;;;9.85;84.37;101328.76;109421;1253;73836;-70
2023/04/16 09:24:38;;;;;;;18.60;12.20;;;;;;;9.91;84.29;101331.30;109239;1253;60760;-70
2023/04/16 09:27:06;;;;;;;17.30;12.90;;;;;;;9.93;83.87;101330.02;109494;1253;58530;-71
2023/04/16 09:29:37;;;;;;;18.10;13.10;;;;;;;9.97;83.69;101330.52;109442;1253;73671;-71
2023/04/16 09:32:06;;;;;;;19.30;12.80;;;;;;;10.05;83.81;101335.41;109325;1253;68656;-71
2023/04/16 09:34:34;;;;;;;18.30;12.90;;;;;;;10.10;83.87;101337.89;109399;1253;72621;-71
2023/04/16 09:37:17;;;;;;;18.30;12.70;;;;;;;10.17;83.58;101339.45;109303;1254;60520;-71
2023/04/16 09:39:44;;;;;;;17.00;12.40;;;;;;;10.26;83.56;101341.08;109405;1253;60041;-71
2023/04/16 09:42:13;;;;;;;15.60;11.80;;;;;;;10.27;83.36;101345.52;109441;1253;73919;-71
2023/04/16 09:44:39;;;;;;;18.40;13.40;;;;;;;10.21;82.80;101347.00;109371;1253;71242;-71
2023/04/16 09:47:07;;;;;;;18.30;12.20;;;;;;;10.21;83.45;101346.27;109420;1253;71097;-71
2023/04/16 09:49:39;;;;;;;17.90;13.10;;;;;;;10.19;83.38;101348.05;109444;1253;61793;-71
2023/04/16 09:52:13;;;;;;;17.20;12.10;;;;;;;10.17;83.69;101351.09;109165;1253;58795;-71
2023/04/16 09:54:46;;;;;;;16.10;12.80;;;;;;;10.17;84.21;101350.40;109310;1253;72750;-71
2023/04/16 09:57:17;;;;;;;18.80;13.40;;;;;;;10.17;84.09;101348.49;109429;1253;71676;-71
2023/04/16 09:59:43;;;;;;;19.00;12.80;;;;;;;10.20;84.37;101351.17;109469;1253;71153;-72
2023/04/16 10:02:11;;;;;;;18.50;13.00;;;;;;;10.22;84.48;101356.45;109261;1254;58526;-72
2023/04/16 10:04:50;;;;;;;15.30;12.60;;;;;;;10.19;84.13;101357.99;109291;1253;59083;-71
2023/04/16 10:07:17;;;;;;;20.20;13.50;;;;;;;10.18;84.41;101362.70;109431;1253;74599;-71
2023/04/16 10:09:47;;;;;;;17.60;13.50;;;;;;;10.16;84.92;101364.11;109482;1253;71441;-71
2023/04/16 10:12:14;;;;;;;17.60;14.00;;;;;;;10.11;85.74;101363.17;109525;1252;72672;-71
2023/04/16 10:14:42;;;;;;;20.20;14.70;;;;;;;10.10;86.32;101364.73;109251;1253;63131;-71
2023/04/16 10:17:09;;;;;;;20.30;14.30;;;;;;;10.11;86.95;101366.73;109160;1254;59426;-71
2023/04/16 10:19:36;;;;;;;19.40;14.70;;;;;;;10.12;87.65;101365.77;109187;1254;72329;-71
2023/04/16 10:22:03;;;;;;;18.50;13.80;;;;;;;10.12;88.07;101369.85;109315;1253;69571;-71
2023/04/16 10:24:31;;;;;;;18.20;14.40;;;;;;;10.08;88.55;101379.09;109401;1253;72345;-71
2023/04/16 10:26:59;;;;;;;21.40;16.00;;;;;;;9.99;89.52;101380.52;109131;1254;61737;-71
2023/04/16 10:29:27;;;;;;;19.80;15.20;;;;;;;9.89;90.40;101378.86;109304;1254;60394;-71
2023/04/16 10:31:54;;;;;;;20.50;15.60;;;;;;;9.88;91.26;101383.23;109465;1253;74838;-71
2023/04/16 10:34:22;;;;;;;18.50;14.30;;;;;;;9.86;91.97;101385.16;109070;1254;70960;-73
2023/04/16 10:36:52;;;;;;;19.40;15.00;;;;;;;9.78;92.34;101382.88;109378;1253;72750;-71
2023/04/16 10:39:22;;;;;;;20.50;16.30;;;;;;;9.80;93.17;101389.30;109158;1254;60267;-71
2023/04/16 10:41:50;;;;;;;21.10;16.90;;;;;;;9.85;93.31;101390.19;109094;1253;60519;-71
2023/04/16 10:44:18;;;;;;;21.30;16.60;;;;;;;9.88;93.77;101394.55;109251;1253;72335;-71
2023/04/16 10:46:48;;;;;;;18.60;15.40;;;;;;;9.88;93.61;101394.39;109293;1253;70228;-71
2023/04/16 10:49:18;;;;;;;20.80;15.90;;;;;;;9.85;94.12;101394.13;109383;1252;71304;-71
2023/04/16 10:52:11;;;;;;;23.20;17.40;;;;;;;9.84;94.62;101397.54;109190;1254;60811;-72
2023/04/16 10:54:39;;;;;;;22.80;17.50;;;;;;;9.87;94.77;101396.72;109262;1254;59192;-73
2023/04/16 10:57:07;;;;;;;19.80;16.70;;;;;;;9.87;95.05;101394.97;109259;1254;71787;-72
2023/04/16 10:59:36;;;;;;;22.30;18.10;;;;;;;9.83;95.14;101395.04;109460;1253;69945;-72
2023/04/16 11:02:14;;;;;;;24.50;18.80;;;;;;;9.78;95.36;101396.68;109274;1253;71552;-73
2023/04/16 11:04:43;;;;;;;23.60;19.50;;;;;;;9.78;95.20;101399.36;109077;1254;60458;-71
2023/04/16 11:07:13;;;;;;;23.10;17.40;;;;;;;9.70;95.66;101401.61;109248;1253;60066;-71
2023/04/16 11:09:54;;;;;;;23.10;18.50;;;;;;;9.63;96.22;101402.81;109187;1254;75057;-72
2023/04/16 11:12:40;;;;;;;24.60;18.60;;;;;;;9.60;96.38;101401.33;109389;1253;69617;-72